createdAt,value
2023-08-30T00:00:42.825Z,93.09
2023-08-30T00:03:30.624Z,93.11
2023-08-30T00:06:04.080Z,93.14
2023-08-30T00:08:32.991Z,93.19
2023-08-30T00:11:00.829Z,93.24
2023-08-30T00:13:31.087Z,93.30
2023-08-30T00:15:58.921Z,93.26
2023-08-30T00:18:26.659Z,93.17
2023-08-30T00:20:54.745Z,93.12
2023-08-30T00:23:22.569Z,93.09
2023-08-30T00:25:50.510Z,93.11
2023-08-30T00:28:18.327Z,93.14
2023-08-30T00:30:46.159Z,93.18
2023-08-30T00:33:14.062Z,93.23
2023-08-30T00:35:41.758Z,93.29
2023-08-30T00:38:09.879Z,93.26
2023-08-30T00:40:41.478Z,93.28
2023-08-30T00:43:09.375Z,93.28
2023-08-30T00:45:41.056Z,93.20
2023-08-30T00:48:09.248Z,93.24
2023-08-30T00:50:37.943Z,93.20
2023-08-30T00:53:07.932Z,93.13
2023-08-30T00:55:36.346Z,93.06
2023-08-30T00:58:04.769Z,93.03
2023-08-30T01:00:32.602Z,93.05
2023-08-30T01:03:00.815Z,93.07
2023-08-30T01:05:29.507Z,93.02
2023-08-30T01:07:57.466Z,93.04
2023-08-30T01:11:19.739Z,93.09
2023-08-30T01:14:09.357Z,93.04
2023-08-30T01:16:38.163Z,92.95
2023-08-30T01:19:35.107Z,92.91
2023-08-30T01:22:11.867Z,92.87
2023-08-30T01:24:57.852Z,92.86
2023-08-30T01:27:26.836Z,92.82
2023-08-30T01:29:57.400Z,92.79
2023-08-30T01:32:27.108Z,92.76
2023-08-30T01:34:55.330Z,92.72
2023-08-30T01:37:24.473Z,92.73
2023-08-30T01:39:53.336Z,92.73
2023-08-30T01:42:23.385Z,92.60
2023-08-30T01:44:52.734Z,92.64
2023-08-30T01:47:20.709Z,92.58
2023-08-30T01:49:49.308Z,92.43
2023-08-30T01:52:17.636Z,92.41
2023-08-30T01:54:47.579Z,92.43
2023-08-30T01:57:15.393Z,92.40
2023-08-30T01:59:43.103Z,92.31
2023-08-30T02:02:10.882Z,92.31
2023-08-30T02:04:38.845Z,92.37
2023-08-30T02:07:17.267Z,92.42
2023-08-30T02:10:09.691Z,92.49
2023-08-30T02:12:48.371Z,92.44
2023-08-30T02:15:18.513Z,92.37
2023-08-30T02:17:47.068Z,92.33
2023-08-30T02:20:14.835Z,92.35
2023-08-30T02:22:42.495Z,92.41
2023-08-30T02:25:11.180Z,92.44
2023-08-30T02:27:38.941Z,92.45
2023-08-30T02:30:07.421Z,92.49
2023-08-30T02:32:35.668Z,92.50
2023-08-30T02:35:04.497Z,92.51
2023-08-30T02:37:32.263Z,92.55
2023-08-30T02:39:59.994Z,92.61
2023-08-30T02:42:27.747Z,92.70
2023-08-30T02:44:55.541Z,92.80
2023-08-30T02:47:23.198Z,92.87
2023-08-30T02:49:50.830Z,92.92
2023-08-30T02:52:19.225Z,92.97
2023-08-30T02:54:47.168Z,93.02
2023-08-30T02:57:15.097Z,93.10
2023-08-30T02:59:42.992Z,93.19
2023-08-30T03:02:10.731Z,93.23
2023-08-30T03:04:39.822Z,93.25
2023-08-30T03:07:07.828Z,93.26
2023-08-30T03:09:35.654Z,93.25
2023-08-30T03:12:03.760Z,93.21
2023-08-30T03:14:33.835Z,93.18
2023-08-30T03:17:01.530Z,93.16
2023-08-30T03:19:29.585Z,93.10
2023-08-30T03:21:57.315Z,93.03
2023-08-30T03:24:24.972Z,92.93
2023-08-30T03:26:52.656Z,92.85
2023-08-30T03:29:20.791Z,92.79
2023-08-30T03:31:48.924Z,92.71
2023-08-30T03:34:17.354Z,92.66
2023-08-30T03:36:45.663Z,92.65
2023-08-30T03:39:13.894Z,92.65
2023-08-30T03:41:41.686Z,92.66
2023-08-30T03:44:09.406Z,92.70
2023-08-30T03:46:37.175Z,92.76
2023-08-30T03:49:05.072Z,92.79
2023-08-30T03:51:32.794Z,92.79
2023-08-30T03:54:01.399Z,92.85
2023-08-30T03:56:29.072Z,92.91
2023-08-30T03:58:56.814Z,92.96
2023-08-30T04:01:24.525Z,93.04
2023-08-30T04:03:52.301Z,93.14
2023-08-30T04:06:20.185Z,93.19
2023-08-30T04:08:50.037Z,93.28
2023-08-30T04:11:18.554Z,93.37
2023-08-30T04:13:47.024Z,93.47
2023-08-30T04:16:15.283Z,93.56
2023-08-30T04:18:42.950Z,93.63
2023-08-30T04:21:10.628Z,93.72
2023-08-30T04:23:38.263Z,93.80
2023-08-30T04:26:06.581Z,93.87
2023-08-30T04:28:35.197Z,93.91
2023-08-30T04:34:27.602Z,93.84
2023-08-30T04:36:55.388Z,93.86
2023-08-30T04:39:25.731Z,93.92
2023-08-30T04:41:54.417Z,93.93
2023-08-30T04:44:25.400Z,93.92
2023-08-30T04:46:53.630Z,93.96
2023-08-30T04:49:22.978Z,94.02
2023-08-30T04:51:50.756Z,94.06
2023-08-30T04:54:18.606Z,94.06
2023-08-30T04:56:46.590Z,94.06
2023-08-30T04:59:14.571Z,94.05
2023-08-30T05:01:45.397Z,94.01
2023-08-30T05:04:14.005Z,94.02
2023-08-30T05:06:41.763Z,94.04
2023-08-30T05:09:09.872Z,94.05
2023-08-30T05:11:38.018Z,94.01
2023-08-30T05:14:05.738Z,93.96
2023-08-30T05:16:35.293Z,93.94
2023-08-30T05:19:03.517Z,93.86
2023-08-30T05:21:31.221Z,93.79
2023-08-30T05:23:59.193Z,93.85
2023-08-30T05:26:27.358Z,93.84
2023-08-30T05:28:55.086Z,93.87
2023-08-30T05:31:22.815Z,93.82
2023-08-30T05:34:14.117Z,93.77
2023-08-30T05:37:11.708Z,93.66
2023-08-30T05:39:58.861Z,93.56
2023-08-30T05:42:26.836Z,93.89
2023-08-30T05:44:57.579Z,94.50
2023-08-30T05:47:25.403Z,93.42
2023-08-30T05:49:53.199Z,92.46
2023-08-30T05:52:22.028Z,92.20
2023-08-30T05:54:50.312Z,92.09
2023-08-30T05:57:19.030Z,91.95
2023-08-30T05:59:47.351Z,91.99
2023-08-30T06:02:15.463Z,92.00
2023-08-30T06:04:45.597Z,92.12
2023-08-30T06:07:13.400Z,92.24
2023-08-30T06:09:41.071Z,92.20
2023-08-30T06:12:09.178Z,92.19
2023-08-30T06:14:36.991Z,92.22
2023-08-30T06:17:04.908Z,92.33
2023-08-30T06:19:32.574Z,92.48
2023-08-30T06:22:00.441Z,92.57
2023-08-30T06:24:28.875Z,92.76
2023-08-30T06:26:57.447Z,94.08
2023-08-30T06:29:25.233Z,93.23
2023-08-30T06:31:53.051Z,92.12
2023-08-30T06:34:20.781Z,91.65
2023-08-30T06:36:49.094Z,92.23
2023-08-30T06:39:18.840Z,91.89
2023-08-30T06:41:46.642Z,90.30
2023-08-30T06:44:15.666Z,89.68
2023-08-30T06:46:44.001Z,89.46
2023-08-30T06:49:12.614Z,89.50
2023-08-30T06:51:40.474Z,89.64
2023-08-30T06:54:08.205Z,89.63
2023-08-30T06:56:36.237Z,89.75
2023-08-30T06:59:04.239Z,89.91
2023-08-30T07:01:33.388Z,90.19
2023-08-30T07:04:03.131Z,90.40
2023-08-30T07:06:32.085Z,90.64
2023-08-30T07:08:59.960Z,90.75
2023-08-30T07:11:33.986Z,90.90
2023-08-30T07:14:05.457Z,91.02
2023-08-30T07:16:33.179Z,91.18
2023-08-30T07:19:02.669Z,91.28
2023-08-30T07:21:30.591Z,91.27
2023-08-30T07:23:58.410Z,91.28
2023-08-30T07:26:26.155Z,91.45
2023-08-30T07:28:54.418Z,91.48
2023-08-30T07:31:22.822Z,91.62
2023-08-30T07:33:50.820Z,91.76
2023-08-30T07:36:18.644Z,91.81
2023-08-30T07:38:47.888Z,91.92
2023-08-30T07:41:15.669Z,91.98
2023-08-30T07:43:43.612Z,92.05
2023-08-30T07:46:11.429Z,92.07
2023-08-30T07:48:39.246Z,92.13
2023-08-30T07:51:06.995Z,92.31
2023-08-30T07:53:34.737Z,92.49
2023-08-30T07:56:02.985Z,92.60
2023-08-30T07:58:30.665Z,92.71
2023-08-30T08:00:58.390Z,92.78
2023-08-30T08:03:26.251Z,92.86
2023-08-30T08:05:54.131Z,92.99
2023-08-30T08:08:21.904Z,93.06
2023-08-30T08:10:49.687Z,93.06
2023-08-30T08:13:17.607Z,93.07
2023-08-30T08:15:45.427Z,93.01
2023-08-30T08:18:13.444Z,92.97
2023-08-30T08:20:41.391Z,92.95
2023-08-30T08:23:09.288Z,92.95
2023-08-30T08:25:37.129Z,93.04
2023-08-30T08:28:05.212Z,93.08
2023-08-30T08:30:32.900Z,93.05
2023-08-30T08:33:01.016Z,93.03
2023-08-30T08:35:28.762Z,93.09
2023-08-30T08:37:56.520Z,93.22
2023-08-30T08:40:41.119Z,93.28
2023-08-30T08:43:12.620Z,93.29
2023-08-30T08:45:40.881Z,93.30
2023-08-30T08:48:09.362Z,93.21
2023-08-30T08:50:37.988Z,93.11
2023-08-30T08:53:06.610Z,93.04
2023-08-30T08:55:35.718Z,93.02
2023-08-30T08:58:04.512Z,93.00
2023-08-30T09:00:32.691Z,92.91
2023-08-30T09:03:01.806Z,92.86
2023-08-30T09:05:30.898Z,92.78
2023-08-30T09:07:59.176Z,92.71
2023-08-30T09:10:26.879Z,92.69
2023-08-30T09:12:54.658Z,92.64
2023-08-30T09:15:23.572Z,92.58
2023-08-30T09:17:51.613Z,92.53
2023-08-30T09:20:21.784Z,92.42
2023-08-30T09:22:51.040Z,92.38
2023-08-30T09:25:27.010Z,92.34
2023-08-30T09:28:00.997Z,92.34
2023-08-30T09:30:29.576Z,92.33
2023-08-30T09:36:10.709Z,92.43
2023-08-30T09:38:39.924Z,92.43
2023-08-30T09:41:06.721Z,92.38
2023-08-30T09:43:36.629Z,92.45
2023-08-30T09:46:06.204Z,92.48
2023-08-30T09:48:33.162Z,92.52
2023-08-30T09:51:03.468Z,92.56
2023-08-30T09:53:33.834Z,92.56
2023-08-30T09:56:02.007Z,92.67
2023-08-30T09:58:28.796Z,92.73
2023-08-30T10:00:55.369Z,92.48
2023-08-30T10:03:31.465Z,92.45
2023-08-30T10:05:59.932Z,92.50
2023-08-30T10:08:31.574Z,92.49
2023-08-30T10:10:59.156Z,92.43
2023-08-30T10:13:26.233Z,92.56
2023-08-30T10:16:00.827Z,92.68
2023-08-30T10:18:29.966Z,92.69
2023-08-30T10:20:57.701Z,92.62
2023-08-30T10:23:26.205Z,92.64
2023-08-30T10:25:54.858Z,92.56
2023-08-30T10:28:23.637Z,92.44
2023-08-30T10:30:51.438Z,92.65
2023-08-30T10:33:18.966Z,92.65
2023-08-30T10:35:52.893Z,92.53
2023-08-30T10:38:27.383Z,92.48
2023-08-30T10:40:54.902Z,92.40
2023-08-30T10:43:34.235Z,92.34
2023-08-30T10:46:07.309Z,92.31
2023-08-30T10:48:41.188Z,92.20
2023-08-30T10:51:22.482Z,92.23
2023-08-30T10:54:00.440Z,92.34
2023-08-30T10:56:31.244Z,92.26
2023-08-30T10:58:57.897Z,92.18
2023-08-30T11:01:24.433Z,92.07
2023-08-30T11:03:52.221Z,92.03
2023-08-30T11:06:20.522Z,92.10
2023-08-30T11:08:49.030Z,92.07
2023-08-30T11:11:15.593Z,92.13
2023-08-30T11:13:42.090Z,92.20
2023-08-30T11:16:08.674Z,92.04
2023-08-30T11:18:42.903Z,91.98
2023-08-30T11:21:09.929Z,91.91
2023-08-30T11:23:36.668Z,91.85
2023-08-30T11:26:04.434Z,91.96
2023-08-30T11:28:30.879Z,91.88
2023-08-30T11:30:57.174Z,91.83
2023-08-30T11:33:23.488Z,91.80
2023-08-30T11:35:52.558Z,91.60
2023-08-30T11:38:20.285Z,91.52
2023-08-30T11:40:49.551Z,91.45
2023-08-30T11:43:16.122Z,91.29
2023-08-30T11:45:42.479Z,91.18
2023-08-30T11:48:09.367Z,91.08
2023-08-30T11:50:46.909Z,91.03
2023-08-30T11:53:14.991Z,90.68
2023-08-30T11:55:41.850Z,90.45
2023-08-30T11:58:09.140Z,90.35
2023-08-30T12:00:35.849Z,90.28
2023-08-30T12:03:02.906Z,90.11
2023-08-30T12:05:34.151Z,89.79
2023-08-30T12:08:01.336Z,89.93
2023-08-30T12:10:30.436Z,89.81
2023-08-30T12:12:57.107Z,89.76
2023-08-30T12:15:26.046Z,89.52
2023-08-30T12:17:52.415Z,89.01
2023-08-30T12:20:20.885Z,89.06
2023-08-30T12:22:48.631Z,88.93
2023-08-30T12:25:18.470Z,88.84
2023-08-30T12:27:45.263Z,89.01
2023-08-30T12:30:12.051Z,89.17
2023-08-30T12:32:38.384Z,89.22
2023-08-30T12:35:05.289Z,89.18
2023-08-30T12:37:31.631Z,89.17
2023-08-30T12:39:57.943Z,89.32
2023-08-30T12:42:26.769Z,89.53
2023-08-30T12:44:53.070Z,89.81
2023-08-30T12:47:19.345Z,90.13
2023-08-30T12:49:45.759Z,90.32
2023-08-30T12:52:12.244Z,90.21
2023-08-30T12:54:38.809Z,90.14
2023-08-30T12:57:05.163Z,90.19
2023-08-30T12:59:31.479Z,90.21
2023-08-30T13:02:00.615Z,90.26
2023-08-30T13:04:27.105Z,90.13
2023-08-30T13:06:53.568Z,90.06
2023-08-30T13:09:21.987Z,90.03
2023-08-30T13:11:48.305Z,89.81
2023-08-30T13:14:14.604Z,89.77
2023-08-30T13:16:41.012Z,89.36
2023-08-30T13:19:07.442Z,89.18
2023-08-30T13:21:41.062Z,89.55
2023-08-30T13:24:08.252Z,89.74
2023-08-30T13:26:34.554Z,89.56
2023-08-30T13:29:02.667Z,89.71
2023-08-30T13:31:29.034Z,89.85
2023-08-30T13:33:55.448Z,88.89
2023-08-30T13:36:21.800Z,88.40
2023-08-30T13:38:48.294Z,87.99
2023-08-30T13:41:14.660Z,87.90
2023-08-30T13:43:41.042Z,87.33
2023-08-30T13:46:07.428Z,87.21
2023-08-30T13:48:33.877Z,87.38
2023-08-30T13:51:00.190Z,86.65
2023-08-30T13:53:26.677Z,86.27
2023-08-30T13:55:53.016Z,86.33
2023-08-30T13:58:19.631Z,86.46
2023-08-30T14:00:46.061Z,85.92
2023-08-30T14:03:12.946Z,86.24
2023-08-30T14:05:42.440Z,86.60
2023-08-30T14:08:09.080Z,86.79
2023-08-30T14:10:35.766Z,86.75
2023-08-30T14:13:02.245Z,86.22
2023-08-30T14:15:28.710Z,85.78
2023-08-30T14:17:55.198Z,85.12
2023-08-30T14:20:21.991Z,85.20
2023-08-30T14:22:48.280Z,85.16
2023-08-30T14:25:14.980Z,85.29
2023-08-30T14:27:41.308Z,85.04
2023-08-30T14:30:09.343Z,85.29
2023-08-30T14:32:35.751Z,85.33
2023-08-30T14:35:04.204Z,85.58
2023-08-30T14:37:30.546Z,85.57
2023-08-30T14:39:56.845Z,85.69
2023-08-30T14:42:23.632Z,85.56
2023-08-30T14:44:51.395Z,85.52
2023-08-30T14:47:18.612Z,85.43
2023-08-30T14:49:46.532Z,86.02
2023-08-30T14:52:14.090Z,86.34
2023-08-30T14:54:40.953Z,86.33
2023-08-30T14:57:07.573Z,86.47
2023-08-30T14:59:33.951Z,86.48
2023-08-30T15:02:00.264Z,86.47
2023-08-30T15:04:27.075Z,86.61
2023-08-30T15:06:53.599Z,86.93
2023-08-30T15:09:19.937Z,87.15
2023-08-30T15:11:46.302Z,87.30
2023-08-30T15:14:12.808Z,87.05
2023-08-30T15:16:39.215Z,87.08
2023-08-30T15:19:05.577Z,86.92
2023-08-30T15:21:31.952Z,87.19
2023-08-30T15:23:58.320Z,87.46
2023-08-30T15:26:25.814Z,87.22
2023-08-30T15:28:52.203Z,87.05
2023-08-30T15:31:21.806Z,87.15
2023-08-30T15:33:48.593Z,87.15
2023-08-30T15:36:15.028Z,87.25
2023-08-30T15:38:45.446Z,87.52
2023-08-30T15:41:12.407Z,87.50
2023-08-30T15:43:39.948Z,87.53
2023-08-30T15:46:10.771Z,87.57
2023-08-30T15:48:38.567Z,87.42
2023-08-30T15:51:08.797Z,87.47
2023-08-30T15:53:41.298Z,87.50
2023-08-30T15:56:07.825Z,87.70
2023-08-30T15:58:34.732Z,87.78
2023-08-30T16:01:05.690Z,87.68
2023-08-30T16:03:32.399Z,87.94
2023-08-30T16:05:59.102Z,87.98
2023-08-30T16:08:28.154Z,88.14
2023-08-30T16:10:55.814Z,88.20
2023-08-30T16:13:22.279Z,88.51
2023-08-30T16:15:48.641Z,88.60
2023-08-30T16:18:16.245Z,88.78
2023-08-30T16:20:42.625Z,88.83
2023-08-30T16:23:08.947Z,88.97
2023-08-30T16:25:35.252Z,89.17
2023-08-30T16:28:01.581Z,89.12
2023-08-30T16:30:29.686Z,89.30
2023-08-30T16:32:56.401Z,89.18
2023-08-30T16:35:24.937Z,89.11
2023-08-30T16:37:51.277Z,89.04
2023-08-30T16:40:17.740Z,89.04
2023-08-30T16:42:44.045Z,89.09
2023-08-30T16:45:10.596Z,89.24
2023-08-30T16:47:52.013Z,89.42
2023-08-30T16:50:24.755Z,89.55
2023-08-30T16:52:51.101Z,89.41
2023-08-30T16:55:19.790Z,89.57
2023-08-30T16:57:46.461Z,89.71
2023-08-30T17:00:13.571Z,89.87
2023-08-30T17:02:41.174Z,89.93
2023-08-30T17:05:08.327Z,90.00
2023-08-30T17:07:34.684Z,90.03
2023-08-30T17:10:01.025Z,90.06
2023-08-30T17:12:27.342Z,90.00
2023-08-30T17:14:53.745Z,90.08
2023-08-30T17:17:20.140Z,90.14
2023-08-30T17:19:46.998Z,90.22
2023-08-30T17:22:13.402Z,90.08
2023-08-30T17:24:39.756Z,90.21
2023-08-30T17:27:11.420Z,90.32
2023-08-30T17:29:38.524Z,90.29
2023-08-30T17:35:15.925Z,90.39
2023-08-30T17:37:44.856Z,90.29
2023-08-30T17:40:13.111Z,90.35
2023-08-30T17:42:41.857Z,90.47
2023-08-30T17:45:20.507Z,90.45
2023-08-30T17:47:49.591Z,90.38
2023-08-30T17:50:17.805Z,90.28
2023-08-30T17:52:45.586Z,90.28
2023-08-30T17:55:16.293Z,90.41
2023-08-30T17:57:44.663Z,90.48
2023-08-30T18:00:15.265Z,90.48
2023-08-30T18:02:45.605Z,90.40
2023-08-30T18:05:15.524Z,90.38
2023-08-30T18:07:45.605Z,90.34
2023-08-30T18:10:14.208Z,90.35
2023-08-30T18:12:43.173Z,90.35
2023-08-30T18:15:11.104Z,90.40
2023-08-30T18:17:39.182Z,90.53
2023-08-30T18:20:08.896Z,90.64
2023-08-30T18:22:37.045Z,90.64
2023-08-30T18:25:05.772Z,90.76
2023-08-30T18:27:34.017Z,90.92
2023-08-30T18:30:05.044Z,90.95
2023-08-30T18:32:33.891Z,91.06
2023-08-30T18:35:02.054Z,91.15
2023-08-30T18:37:30.525Z,91.20
2023-08-30T18:39:58.287Z,91.03
2023-08-30T18:42:28.317Z,91.09
2023-08-30T18:44:56.112Z,91.18
2023-08-30T18:47:24.509Z,91.27
2023-08-30T18:49:52.307Z,91.25
2023-08-30T18:52:20.232Z,91.24
2023-08-30T18:54:48.177Z,91.22
2023-08-30T18:57:16.154Z,91.22
2023-08-30T18:59:45.378Z,91.26
2023-08-30T19:02:14.302Z,91.22
2023-08-30T19:04:42.651Z,91.21
2023-08-30T19:07:10.531Z,91.36
2023-08-30T19:09:42.046Z,91.52
2023-08-30T19:12:09.861Z,91.48
2023-08-30T19:14:37.701Z,91.41
2023-08-30T19:17:05.491Z,91.44
2023-08-30T19:19:34.445Z,91.49
2023-08-30T19:22:02.843Z,91.42
2023-08-30T19:24:35.668Z,91.40
2023-08-30T19:27:12.398Z,91.41
2023-08-30T19:29:40.428Z,91.43
2023-08-30T19:32:08.237Z,91.49
2023-08-30T19:34:36.061Z,91.56
2023-08-30T19:37:04.321Z,91.61
2023-08-30T19:39:32.192Z,91.66
2023-08-30T19:42:00.617Z,91.63
2023-08-30T19:44:28.523Z,91.61
2023-08-30T19:47:00.993Z,91.53
2023-08-30T19:49:29.181Z,91.67
2023-08-30T19:51:57.031Z,91.70
2023-08-30T19:54:24.870Z,91.78
2023-08-30T19:56:53.063Z,91.90
2023-08-30T19:59:20.878Z,91.97
2023-08-30T20:01:48.770Z,91.99
2023-08-30T20:04:16.652Z,92.08
2023-08-30T20:06:44.492Z,92.13
2023-08-30T20:09:12.242Z,92.13
2023-08-30T20:11:40.937Z,92.15
2023-08-30T20:14:08.754Z,92.16
2023-08-30T20:16:36.603Z,92.15
2023-08-30T20:19:05.029Z,92.20
2023-08-30T20:21:35.112Z,92.20
2023-08-30T20:24:04.684Z,92.19
2023-08-30T20:26:33.214Z,92.21
2023-08-30T20:29:00.997Z,92.19
2023-08-30T20:31:30.008Z,92.19
2023-08-30T20:33:58.174Z,92.16
2023-08-30T20:36:34.564Z,92.16
2023-08-30T20:39:08.159Z,92.12
2023-08-30T20:41:36.066Z,92.07
2023-08-30T20:44:04.742Z,92.07
2023-08-30T20:46:33.102Z,91.96
2023-08-30T20:49:01.034Z,91.89
2023-08-30T20:51:29.231Z,91.86
2023-08-30T20:54:02.074Z,91.80
2023-08-30T20:56:30.422Z,91.78
2023-08-30T20:59:01.898Z,91.73
2023-08-30T21:01:31.579Z,91.68
2023-08-30T21:03:59.924Z,91.62
2023-08-30T21:06:28.634Z,91.58
2023-08-30T21:08:57.714Z,91.56
2023-08-30T21:11:25.843Z,91.54
2023-08-30T21:13:53.609Z,91.48
2023-08-30T21:16:21.439Z,91.49
2023-08-30T21:18:49.388Z,91.54
2023-08-30T21:21:17.410Z,91.49
2023-08-30T21:23:45.149Z,91.60
2023-08-30T21:26:13.445Z,91.66
2023-08-30T21:28:41.123Z,91.71
2023-08-30T21:31:08.974Z,91.77
2023-08-30T21:33:36.745Z,91.62
2023-08-30T21:36:04.999Z,91.60
2023-08-30T21:38:34.012Z,91.60
2023-08-30T21:41:02.100Z,91.65
2023-08-30T21:43:29.791Z,91.68
2023-08-30T21:45:57.619Z,91.63
2023-08-30T21:48:25.526Z,91.61
2023-08-30T21:50:56.426Z,91.56
2023-08-30T21:53:24.666Z,91.54
2023-08-30T21:55:52.400Z,91.57
2023-08-30T21:58:21.127Z,91.59
2023-08-30T22:00:50.014Z,91.64
2023-08-30T22:03:19.169Z,91.59
2023-08-30T22:05:47.012Z,91.69
2023-08-30T22:08:14.711Z,91.67
2023-08-30T22:10:42.722Z,91.72
2023-08-30T22:13:10.662Z,91.62
2023-08-30T22:15:38.485Z,91.69
2023-08-30T22:18:06.291Z,91.73
2023-08-30T22:20:34.018Z,91.72
2023-08-30T22:23:03.499Z,91.64
2023-08-30T22:25:31.235Z,91.61
2023-08-30T22:28:00.918Z,91.58
2023-08-30T22:30:28.682Z,91.58
2023-08-30T22:32:57.002Z,91.57
2023-08-30T22:35:24.992Z,91.57
2023-08-30T22:37:53.078Z,91.54
2023-08-30T22:40:20.907Z,91.59
2023-08-30T22:42:48.769Z,91.59
2023-08-30T22:45:16.684Z,91.51
2023-08-30T22:47:47.083Z,91.37
2023-08-30T22:50:14.913Z,91.35
2023-08-30T22:52:42.651Z,91.43
2023-08-30T22:55:10.479Z,91.38
2023-08-30T22:57:38.353Z,91.25
2023-08-30T23:00:09.903Z,91.18
2023-08-30T23:02:38.954Z,91.14
2023-08-30T23:05:07.635Z,91.10
2023-08-30T23:07:35.443Z,91.07
2023-08-30T23:10:05.474Z,91.13
2023-08-30T23:12:34.083Z,91.13
2023-08-30T23:15:02.136Z,91.12
2023-08-30T23:17:30.265Z,91.07
2023-08-30T23:19:59.324Z,90.97
2023-08-30T23:22:27.150Z,90.96
2023-08-30T23:24:54.853Z,91.08
2023-08-30T23:27:22.712Z,91.09
2023-08-30T23:29:50.398Z,91.01
2023-08-30T23:32:58.556Z,91.12
2023-08-30T23:35:27.364Z,91.03
2023-08-30T23:37:55.236Z,90.95
2023-08-30T23:40:24.350Z,91.02
2023-08-30T23:42:52.123Z,91.05
2023-08-30T23:45:21.467Z,91.11
2023-08-30T23:47:49.303Z,91.11
2023-08-30T23:50:17.050Z,91.19
2023-08-30T23:52:46.026Z,91.25
2023-08-30T23:55:13.798Z,91.18
2023-08-30T23:57:41.978Z,91.12
